createdAt,value
2023-03-06T00:00:36.773Z,8.60
2023-03-06T00:03:39.249Z,9.77
2023-03-06T00:06:41.964Z,10.48
2023-03-06T00:09:44.238Z,11.13
2023-03-06T00:12:46.579Z,11.68
2023-03-06T00:15:49.746Z,13.05
2023-03-06T00:18:52.557Z,10.52
2023-03-06T00:21:55.003Z,10.68
2023-03-06T00:24:57.442Z,10.10
2023-03-06T00:27:59.898Z,13.25
2023-03-06T00:31:02.901Z,11.48
2023-03-06T00:34:05.320Z,12.18
2023-03-06T00:37:07.720Z,13.73
2023-03-06T00:40:15.729Z,17.00
2023-03-06T00:43:18.073Z,14.95
2023-03-06T00:46:20.396Z,12.97
2023-03-06T00:49:22.758Z,10.57
2023-03-06T00:52:25.191Z,11.55
2023-03-06T00:55:29.517Z,11.57
2023-03-06T00:58:31.937Z,10.48
2023-03-06T01:01:34.295Z,8.55
2023-03-06T01:04:36.859Z,15.30
2023-03-06T01:07:39.810Z,19.30
2023-03-06T01:10:42.189Z,14.75
2023-03-06T01:13:44.896Z,15.27
2023-03-06T01:16:48.846Z,12.45
2023-03-06T01:19:52.753Z,15.63
2023-03-06T01:22:56.666Z,12.57
2023-03-06T01:25:59.289Z,15.32
2023-03-06T01:29:02.080Z,12.90
2023-03-06T01:32:04.463Z,15.63
2023-03-06T01:35:08.042Z,19.65
2023-03-06T01:38:10.346Z,18.67
2023-03-06T01:41:15.903Z,15.65
2023-03-06T01:44:18.322Z,13.43
2023-03-06T01:47:22.484Z,15.45
2023-03-06T01:50:24.987Z,19.08
2023-03-06T01:53:27.589Z,14.43
2023-03-06T01:56:30.352Z,14.73
2023-03-06T01:59:34.439Z,14.55
2023-03-06T02:02:37.542Z,14.15
2023-03-06T02:05:42.250Z,13.10
2023-03-06T02:08:44.741Z,11.52
2023-03-06T02:11:47.929Z,13.80
2023-03-06T02:14:50.912Z,11.77
2023-03-06T02:17:53.472Z,15.20
2023-03-06T02:20:58.911Z,18.17
2023-03-06T02:24:38.482Z,16.23
2023-03-06T02:27:41.394Z,14.93
2023-03-06T02:30:45.378Z,13.00
2023-03-06T02:34:00.102Z,14.35
2023-03-06T02:37:06.929Z,15.43
2023-03-06T02:40:12.506Z,13.27
2023-03-06T02:43:16.436Z,16.30
2023-03-06T02:46:19.113Z,14.70
2023-03-06T02:49:21.589Z,10.63
2023-03-06T02:52:23.985Z,16.17
2023-03-06T02:55:26.388Z,13.20
2023-03-06T02:58:30.414Z,10.77
2023-03-06T03:01:32.896Z,10.90
2023-03-06T03:04:35.554Z,12.35
2023-03-06T03:07:38.710Z,10.65
2023-03-06T03:10:41.276Z,12.13
2023-03-06T03:13:43.750Z,10.68
2023-03-06T03:16:52.222Z,18.73
2023-03-06T03:19:55.091Z,11.45
2023-03-06T03:22:58.096Z,15.07
2023-03-06T03:26:19.798Z,14.93
2023-03-06T03:29:35.278Z,13.02
2023-03-06T03:32:38.252Z,9.98
2023-03-06T03:35:40.692Z,14.43
2023-03-06T03:38:43.079Z,12.90
2023-03-06T03:41:46.252Z,13.35
2023-03-06T03:44:49.095Z,9.32
2023-03-06T03:47:52.600Z,12.05
2023-03-06T03:50:55.620Z,12.50
2023-03-06T03:53:59.775Z,11.40
2023-03-06T03:57:05.640Z,11.05
2023-03-06T04:00:16.244Z,11.73
2023-03-06T04:03:41.863Z,12.80
2023-03-06T04:06:45.716Z,10.85
2023-03-06T04:12:51.654Z,11.85
2023-03-06T04:15:55.528Z,12.82
2023-03-06T04:18:59.454Z,15.57
2023-03-06T04:22:02.460Z,10.57
2023-03-06T04:25:07.482Z,11.32
2023-03-06T04:28:11.565Z,24.17
2023-03-06T04:31:14.939Z,12.10
2023-03-06T04:34:18.286Z,13.07
2023-03-06T04:37:23.848Z,10.70
2023-03-06T04:40:30.010Z,9.20
2023-03-06T04:43:32.572Z,12.25
2023-03-06T04:46:35.400Z,17.20
2023-03-06T04:49:37.907Z,27.70
2023-03-06T04:52:40.682Z,66.35
2023-03-06T04:55:43.376Z,51.42
2023-03-06T04:58:45.945Z,58.90
2023-03-06T05:01:48.473Z,34.60
2023-03-06T05:04:50.810Z,24.30
2023-03-06T05:07:53.765Z,17.95
2023-03-06T05:10:58.059Z,17.30
2023-03-06T05:14:00.407Z,27.13
2023-03-06T05:17:02.780Z,14.30
2023-03-06T05:20:09.836Z,15.13
2023-03-06T05:23:12.753Z,18.30
2023-03-06T05:26:15.795Z,17.75
2023-03-06T05:29:18.141Z,22.15
2023-03-06T05:32:21.202Z,42.75
2023-03-06T05:35:24.039Z,47.53
2023-03-06T05:38:26.620Z,63.35
2023-03-06T05:41:29.210Z,40.95
2023-03-06T05:44:35.586Z,47.83
2023-03-06T05:47:38.190Z,72.38
2023-03-06T05:50:40.871Z,109.20
2023-03-06T05:53:43.415Z,77.50
2023-03-06T05:56:45.817Z,51.73
2023-03-06T05:59:49.218Z,54.10
2023-03-06T06:02:51.490Z,64.60
2023-03-06T06:05:54.026Z,63.17
2023-03-06T06:08:56.370Z,57.63
2023-03-06T06:12:01.844Z,55.35
2023-03-06T06:15:04.845Z,47.40
2023-03-06T06:18:07.168Z,33.45
2023-03-06T06:21:11.450Z,33.10
2023-03-06T06:24:14.661Z,43.30
2023-03-06T06:27:17.232Z,46.67
2023-03-06T06:30:20.056Z,46.20
2023-03-06T06:33:22.427Z,34.40
2023-03-06T06:36:24.980Z,37.75
2023-03-06T06:39:27.547Z,37.97
2023-03-06T06:42:36.308Z,34.42
2023-03-06T06:45:44.387Z,33.55
2023-03-06T06:48:49.663Z,23.70
2023-03-06T06:51:52.423Z,23.63
2023-03-06T06:54:55.390Z,24.42
2023-03-06T06:57:58.028Z,21.58
2023-03-06T07:01:09.151Z,31.27
2023-03-06T07:04:13.891Z,27.13
2023-03-06T07:07:16.467Z,32.30
2023-03-06T07:10:20.721Z,23.65
2023-03-06T07:13:23.581Z,22.45
2023-03-06T07:16:26.386Z,21.10
2023-03-06T07:19:28.941Z,14.43
2023-03-06T07:22:38.716Z,26.27
2023-03-06T07:25:51.117Z,20.77
2023-03-06T07:28:53.931Z,21.98
2023-03-06T07:31:56.605Z,15.40
2023-03-06T07:35:18.782Z,21.83
2023-03-06T07:38:21.694Z,35.35
2023-03-06T07:41:24.236Z,33.97
2023-03-06T07:44:27.134Z,28.33
2023-03-06T07:47:29.492Z,25.23
2023-03-06T07:50:33.088Z,207.25
2023-03-06T07:53:35.961Z,52.83
2023-03-06T07:56:39.010Z,19.92
2023-03-06T07:59:41.579Z,19.90
2023-03-06T08:02:44.325Z,25.63
2023-03-06T08:05:47.009Z,26.05
2023-03-06T08:08:50.211Z,21.52
2023-03-06T08:11:53.135Z,14.40
2023-03-06T08:14:55.546Z,19.98
2023-03-06T08:17:58.455Z,23.27
2023-03-06T08:21:05.571Z,18.05
2023-03-06T08:24:08.671Z,23.38
2023-03-06T08:27:11.068Z,124.05
2023-03-06T08:30:14.289Z,68.55
2023-03-06T08:33:16.819Z,15.18
2023-03-06T08:36:19.628Z,15.45
2023-03-06T08:39:23.865Z,17.83
2023-03-06T08:42:26.261Z,20.20
2023-03-06T08:45:28.796Z,13.88
2023-03-06T08:48:31.730Z,13.52
2023-03-06T08:51:34.204Z,9.87
2023-03-06T08:54:37.064Z,11.60
2023-03-06T08:57:39.742Z,10.48
2023-03-06T09:00:42.246Z,11.30
2023-03-06T09:03:44.819Z,11.45
2023-03-06T09:06:47.482Z,10.43
2023-03-06T09:09:50.130Z,14.43
2023-03-06T09:12:55.034Z,11.02
2023-03-06T09:15:57.745Z,17.10
2023-03-06T09:19:00.277Z,10.32
2023-03-06T09:22:02.718Z,13.45
2023-03-06T09:25:06.730Z,13.93
2023-03-06T09:31:17.123Z,13.27
2023-03-06T09:34:19.453Z,16.88
2023-03-06T09:37:21.875Z,12.75
2023-03-06T09:40:42.463Z,15.50
2023-03-06T09:43:48.306Z,11.10
2023-03-06T09:47:12.250Z,10.77
2023-03-06T09:50:43.504Z,10.55
2023-03-06T09:54:00.093Z,98.43
2023-03-06T09:57:03.670Z,14.20
2023-03-06T10:00:12.033Z,23.70
2023-03-06T10:03:27.718Z,14.18
2023-03-06T10:06:34.047Z,14.77
2023-03-06T10:10:00.928Z,19.85
2023-03-06T10:13:07.065Z,23.98
2023-03-06T10:16:31.281Z,17.73
2023-03-06T10:19:40.354Z,13.63
2023-03-06T10:23:01.051Z,13.40
2023-03-06T10:26:14.210Z,12.18
2023-03-06T10:29:39.197Z,13.18
2023-03-06T10:32:58.060Z,11.98
2023-03-06T10:36:00.791Z,26.20
2023-03-06T10:39:07.660Z,24.67
2023-03-06T10:42:10.357Z,14.38
2023-03-06T10:45:15.449Z,8.35
2023-03-06T10:48:29.798Z,17.35
2023-03-06T10:54:39.497Z,17.67
2023-03-06T10:57:41.797Z,17.05
2023-03-06T11:00:44.176Z,99.95
2023-03-06T11:03:47.788Z,20.10
2023-03-06T11:07:15.039Z,19.52
2023-03-06T11:10:19.631Z,11.35
2023-03-06T11:13:24.257Z,11.02
2023-03-06T11:16:30.846Z,12.35
2023-03-06T11:19:34.092Z,13.38
2023-03-06T11:22:37.069Z,16.60
2023-03-06T11:25:48.357Z,12.63
2023-03-06T11:28:59.577Z,17.60
2023-03-06T11:32:13.255Z,15.90
2023-03-06T11:35:28.605Z,19.77
2023-03-06T11:38:40.050Z,14.10
2023-03-06T11:41:54.397Z,15.82
2023-03-06T11:48:17.654Z,17.25
2023-03-06T11:51:25.993Z,20.70
2023-03-06T11:54:28.451Z,21.77
2023-03-06T11:57:36.409Z,18.15
2023-03-06T12:00:44.684Z,21.42
2023-03-06T12:03:52.828Z,18.23
2023-03-06T12:07:01.617Z,49.83
2023-03-06T12:10:24.839Z,24.40
2023-03-06T12:13:38.363Z,145.95
2023-03-06T12:16:47.112Z,33.88
2023-03-06T12:19:59.457Z,22.02
2023-03-06T12:23:31.193Z,21.17
2023-03-06T12:26:43.519Z,25.80
2023-03-06T12:30:04.720Z,52.33
2023-03-06T12:33:18.333Z,19.38
2023-03-06T12:36:29.673Z,20.33
2023-03-06T12:39:57.557Z,22.17
2023-03-06T12:43:07.292Z,20.08
2023-03-06T12:46:16.224Z,23.15
2023-03-06T12:49:38.704Z,43.67
2023-03-06T12:52:42.993Z,15.03
2023-03-06T12:55:49.791Z,18.65
2023-03-06T12:58:54.786Z,21.25
2023-03-06T13:02:05.131Z,22.33
2023-03-06T13:05:34.934Z,31.80
2023-03-06T13:08:55.415Z,24.25
2023-03-06T13:11:57.739Z,23.67
2023-03-06T13:15:01.779Z,23.63
2023-03-06T13:21:42.788Z,23.25
2023-03-06T13:24:45.848Z,43.47
2023-03-06T13:27:53.978Z,27.85
2023-03-06T13:30:56.468Z,17.40
2023-03-06T13:34:37.736Z,13.10
2023-03-06T13:37:49.770Z,12.55
2023-03-06T13:40:52.232Z,12.43
2023-03-06T13:43:59.430Z,17.83
2023-03-06T13:47:05.453Z,20.73
2023-03-06T13:50:38.520Z,14.45
2023-03-06T13:54:17.552Z,11.73
2023-03-06T13:57:43.928Z,14.95
2023-03-06T14:01:17.874Z,16.05
2023-03-06T14:04:44.863Z,19.53
2023-03-06T14:08:05.121Z,18.55
2023-03-06T14:11:21.053Z,16.80
2023-03-06T14:14:33.593Z,18.33
2023-03-06T14:17:39.331Z,15.95
2023-03-06T14:20:45.776Z,20.42
2023-03-06T14:24:01.119Z,59.35
2023-03-06T14:27:03.857Z,31.45
2023-03-06T14:30:15.270Z,20.90
2023-03-06T14:33:51.241Z,21.90
2023-03-06T14:37:05.735Z,27.92
2023-03-06T14:40:11.664Z,25.52
2023-03-06T14:43:27.025Z,19.13
2023-03-06T14:46:29.865Z,143.27
2023-03-06T14:49:32.251Z,47.67
2023-03-06T14:52:34.861Z,23.65
2023-03-06T14:55:37.230Z,22.10
2023-03-06T14:58:52.956Z,16.77
2023-03-06T15:02:01.050Z,19.15
2023-03-06T15:05:07.479Z,143.85
2023-03-06T15:08:10.666Z,50.20
2023-03-06T15:11:13.033Z,26.15
2023-03-06T15:14:20.011Z,23.83
2023-03-06T15:17:28.246Z,42.35
2023-03-06T15:20:36.425Z,89.70
2023-03-06T15:23:39.935Z,57.95
2023-03-06T15:26:42.358Z,49.72
2023-03-06T15:29:45.138Z,89.30
2023-03-06T15:32:47.761Z,83.40
2023-03-06T15:35:55.145Z,55.22
2023-03-06T15:38:58.525Z,66.63
2023-03-06T15:42:09.390Z,62.00
2023-03-06T15:45:30.939Z,88.07
2023-03-06T15:48:36.713Z,32.72
2023-03-06T15:51:39.174Z,25.85
2023-03-06T15:54:41.539Z,40.10
2023-03-06T15:58:04.791Z,45.95
2023-03-06T16:01:09.055Z,34.28
2023-03-06T16:04:12.403Z,66.50
2023-03-06T16:07:15.412Z,59.78
2023-03-06T16:10:26.629Z,43.10
2023-03-06T16:13:29.522Z,57.22
2023-03-06T16:16:37.784Z,41.90
2023-03-06T16:19:41.019Z,78.40
2023-03-06T16:22:44.832Z,50.65
2023-03-06T16:25:49.404Z,61.30
2023-03-06T16:28:51.795Z,52.95
2023-03-06T16:31:56.584Z,47.08
2023-03-06T16:34:58.969Z,48.30
2023-03-06T16:38:01.301Z,43.47
2023-03-06T16:41:03.754Z,41.22
2023-03-06T16:44:07.907Z,38.83
2023-03-06T16:47:12.099Z,37.83
2023-03-06T16:50:27.986Z,48.38
2023-03-06T16:53:30.359Z,69.85
2023-03-06T16:56:32.616Z,154.77
2023-03-06T16:59:35.006Z,85.82
2023-03-06T17:02:39.133Z,50.72
2023-03-06T17:05:43.990Z,46.85
2023-03-06T17:08:47.177Z,60.70
2023-03-06T17:11:49.777Z,55.80
2023-03-06T17:14:55.089Z,80.63
2023-03-06T17:17:57.930Z,90.30
2023-03-06T17:21:00.548Z,64.13
2023-03-06T17:24:03.869Z,116.32
2023-03-06T17:27:06.326Z,62.75
2023-03-06T17:30:09.976Z,54.85
2023-03-06T17:33:12.330Z,49.38
2023-03-06T17:36:15.496Z,48.97
2023-03-06T17:39:17.825Z,49.20
2023-03-06T17:42:20.264Z,66.13
2023-03-06T17:45:22.690Z,68.32
2023-03-06T17:48:25.304Z,67.93
2023-03-06T17:51:29.767Z,67.85
2023-03-06T17:54:33.444Z,72.30
2023-03-06T17:57:36.040Z,63.42
2023-03-06T18:00:40.142Z,61.58
2023-03-06T18:03:48.310Z,54.05
2023-03-06T18:06:50.948Z,52.95
2023-03-06T18:09:53.228Z,60.28
2023-03-06T18:12:56.785Z,68.18
2023-03-06T18:15:59.614Z,60.03
2023-03-06T18:19:02.297Z,45.20
2023-03-06T18:22:04.857Z,58.78
2023-03-06T18:25:07.796Z,64.05
2023-03-06T18:28:11.285Z,63.58
2023-03-06T18:31:34.408Z,61.85
2023-03-06T18:34:37.716Z,52.90
2023-03-06T18:37:40.482Z,47.30
2023-03-06T18:40:43.206Z,40.20
2023-03-06T18:43:45.952Z,55.45
2023-03-06T18:46:48.358Z,53.10
2023-03-06T18:49:50.715Z,52.55
2023-03-06T18:52:52.983Z,45.45
2023-03-06T18:55:55.608Z,42.97
2023-03-06T18:59:01.745Z,40.05
2023-03-06T19:02:04.458Z,41.50
2023-03-06T19:05:07.263Z,45.45
2023-03-06T19:08:09.895Z,45.70
2023-03-06T19:11:17.254Z,47.13
2023-03-06T19:14:21.426Z,40.95
2023-03-06T19:17:25.008Z,41.63
2023-03-06T19:20:27.866Z,41.15
2023-03-06T19:23:30.300Z,30.67
2023-03-06T19:26:32.624Z,50.08
2023-03-06T19:29:35.021Z,43.35
2023-03-06T19:32:37.883Z,45.38
2023-03-06T19:35:40.484Z,38.95
2023-03-06T19:38:43.469Z,69.20
2023-03-06T19:41:47.771Z,68.32
2023-03-06T19:44:50.147Z,72.05
2023-03-06T19:47:55.562Z,73.80
2023-03-06T19:50:57.862Z,59.00
2023-03-06T19:54:00.254Z,53.42
2023-03-06T19:57:02.759Z,48.80
2023-03-06T20:00:05.892Z,50.33
2023-03-06T20:03:14.925Z,41.10
2023-03-06T20:06:19.061Z,38.03
2023-03-06T20:09:21.991Z,33.60
2023-03-06T20:12:24.485Z,28.40
2023-03-06T20:15:28.171Z,36.10
2023-03-06T20:21:38.176Z,38.92
2023-03-06T20:24:40.693Z,38.13
2023-03-06T20:27:44.494Z,41.17
2023-03-06T20:30:46.993Z,36.50
2023-03-06T20:33:51.843Z,42.13
2023-03-06T20:36:54.215Z,36.33
2023-03-06T20:39:56.611Z,40.17
2023-03-06T20:42:59.164Z,40.45
2023-03-06T20:46:03.524Z,45.33
2023-03-06T20:49:06.005Z,44.05
2023-03-06T20:52:08.366Z,39.05
2023-03-06T20:55:11.004Z,42.75
2023-03-06T20:58:13.327Z,39.47
2023-03-06T21:01:23.763Z,38.20
2023-03-06T21:04:26.281Z,45.92
2023-03-06T21:07:28.683Z,44.80
2023-03-06T21:10:31.247Z,42.88
2023-03-06T21:13:33.559Z,42.45
2023-03-06T21:16:36.625Z,45.50
2023-03-06T21:19:39.264Z,40.92
2023-03-06T21:22:41.583Z,44.08
2023-03-06T21:25:49.028Z,48.35
2023-03-06T21:28:51.735Z,40.08
2023-03-06T21:31:54.245Z,50.13
2023-03-06T21:34:56.641Z,47.78
2023-03-06T21:37:58.995Z,53.25
2023-03-06T21:41:15.321Z,47.70
2023-03-06T21:44:17.803Z,50.42
2023-03-06T21:47:20.119Z,47.38
2023-03-06T21:50:22.885Z,44.85
2023-03-06T21:53:25.216Z,45.77
2023-03-06T21:56:28.597Z,45.80
2023-03-06T21:59:31.338Z,46.95
2023-03-06T22:02:33.667Z,46.42
2023-03-06T22:05:35.925Z,46.75
2023-03-06T22:08:38.344Z,47.22
2023-03-06T22:11:42.362Z,42.50
2023-03-06T22:14:44.702Z,46.05
2023-03-06T22:17:48.656Z,45.70
2023-03-06T22:20:52.221Z,42.35
2023-03-06T22:23:59.964Z,44.80
2023-03-06T22:27:02.298Z,48.97
2023-03-06T22:30:05.204Z,47.10
2023-03-06T22:33:07.583Z,39.07
2023-03-06T22:36:14.868Z,45.53
2023-03-06T22:39:17.520Z,49.53
2023-03-06T22:42:19.938Z,50.47
2023-03-06T22:45:22.217Z,115.10
2023-03-06T22:48:24.607Z,116.50
2023-03-06T22:51:28.058Z,98.68
2023-03-06T22:54:30.469Z,95.68
2023-03-06T22:57:32.879Z,89.85
2023-03-06T23:00:35.441Z,75.75
2023-03-06T23:03:39.313Z,92.70
2023-03-06T23:06:43.326Z,87.70
2023-03-06T23:09:45.756Z,76.72
2023-03-06T23:13:07.166Z,60.58
2023-03-06T23:16:28.184Z,53.63
2023-03-06T23:19:50.492Z,79.85
2023-03-06T23:23:11.815Z,184.10
2023-03-06T23:26:17.804Z,152.88
2023-03-06T23:29:20.131Z,117.95
2023-03-06T23:32:22.525Z,77.38
2023-03-06T23:35:24.919Z,53.05
2023-03-06T23:38:27.341Z,56.67
2023-03-06T23:41:29.710Z,45.97
2023-03-06T23:44:31.995Z,48.25
2023-03-06T23:47:34.718Z,46.90
2023-03-06T23:50:41.199Z,34.80
2023-03-06T23:53:44.673Z,45.17
2023-03-06T23:56:46.970Z,42.13
2023-03-06T23:59:49.349Z,45.65
